Terminal Aerodrome Forecast
Issued by NWS

Home | Current Version | Previous Version | Text Only | Print | Product List | Glossary On
Versions: 1 2 3 4 5 6 7 8 9 10 11 12 13 14 15 16 17 18 19 20 21 22 23 24 25 26
000
FTUS45 KBOU 201731
TAFBJC
TAF
KBJC 201731Z 2018/2118 10005KT P6SM BKN200
     FM202100 36011KT P6SM FEW080 SCT200
     FM210200 26008KT P6SM SCT090 BKN200
     FM211500 05006KT P6SM FEW010 SCT050 BKN100=

USA.gov is the U.S. government's official web portal to all federal, state and local government web resources and services.